Accueil
METAR-TAF:

METAR-TAF

Aéroports :

Fernandina Beach, Floride, États-Unis

latitude: 30-36-43N, longitude: 081-27-40W, altitude: 5 m

Observation

Le bulletin a été fait il y a 15 minutes, à 18:35 UTC
Vent 11 kt de est
Température 20°C
Humidité 56%
Pression 1016 hPa
Visibilité: 16.1 km
Ciel clair

METAR: KFHB 021835Z AUTO 08011KT 10SM CLR 20/11 A3000 RMK AO2 T01960112

Heure: 14:50 (18:50 UTC)


TAF: absent

Observations et prévisions météorologiques de plus de 4000 aéroports (messages METAR et TAF).

Les stations disponibles sont représentées par des disques jaunes et rouges sur la carte.

Passer la souris dessus pour voir le nom de la station.

Cliquer dessus pour voir les observations et prévisions météorologiques.

Pour changer de carte: cliquez sur les boutons verts avec une croix noire pour zoomer, sur le bouton vert avec un tiret pour effectuer un zoom arrière, ou sur les flèches vertes pour les cartes adjacentes.


METAR-TAF: